Gustavus Airport
PAGS : rendu visible

Aérodrome :











RETROUVEZ-NOUS SUR...

 
LOGIN :

S'inscrire | Disclaimer

   EN    FR    IT 

 









Légende :    VFR   VFR Marginal   IFR   IFR Intensif   IFR Très Intensif
Visi : 
Plafond : 
>= 8 km
>= 3000ft
5 à 8 km
1000 à 3000 ft
1500m à 5 km
500 à 1000 ft
800 à 1500m
200 à 500 ft
< 800m
< 200 ft
Symboles :   Orages  Brouillard  Fortes neiges  Fortes précipitations  Vent > 20 kt






- Altitude de l'aérodrome : 35 ft
- Code IATA : GST


PAGS - Gustavus

DERNIER METAR :
  • 250756Z AUTO 14014G20KT 4SM -SN BR FEW015 BKN035 OVC060 01/M02 A2949 RMK AO2 RAB35E51SNE35B51 SLP987 P0000 T00061017 FZRANO

METARs EXPIRÉS :
  • 250737Z AUTO 16008KT 9SM -RA FEW014 OVC035 01/M02 A2949 RMK AO2 RAB35SNE35 P0000 FZRANO
  • 250724Z AUTO 14008KT 8SM -SN BKN015 BKN028 OVC035 01/M02 A2949 RMK AO2 P0000 FZRANO
  • 250656Z AUTO 15010G16KT 4SM -SN BR SCT016 BKN023 OVC050 01/M02 A2948 RMK AO2 UPB30E43SNE30B43 SLP983 P0000 T00061017 FZRANO
  • 250556Z AUTO 14008KT 9SM -SN BKN055 OVC100 M01/M02 A2946 RMK AO2 UPE06B24E39RAB23E24SNB39 SLP975 P0000 60001 T10061022 10006 21028 53017 FZRANO

TAF PAGS
Valide du 25 à 06h jusqu'au 26 à 06h UTC


250528Z 2506/2606 13006KT 6SM -SN FEW009 SCT040 OVC100
TEMPO 2506/2510 4SM -SN BR BKN025 OVC040
FM251400 VRB03KT P6SM VCSH OVC040
FM251700 33003KT 2SM -SHSN BR OVC015
FM260200 15009KT 2SM -SN BR OVC007 AMD LTD TO CLD VIS AND WIND



MET'MAP, la Météo Aéronautique d'un coup d'oeil ! - Copyright ORBIFLY Décembre 2007 - Disclaimer

ORBIFLY MET'MAP TEAM :

Programmation & Développement : Alexandra Zaïnal
Sur une idée originale de : Baudouin d'Aumeries
Assistance à la programmation : Marc-Olivier Méhu
Soutien technique & logistique : Manuel Goepfert

Contact : metmap@orbifly.com




SOURCES & CREDITS :

   NOAA       Earth
Advisory